createdAt,value
2023-03-30T00:01:41.854Z,10.93
2023-03-30T00:04:11.519Z,13.18
2023-03-30T00:06:39.233Z,7.13
2023-03-30T00:09:06.284Z,13.55
2023-03-30T00:11:34.161Z,6.60
2023-03-30T00:14:01.485Z,12.80
2023-03-30T00:16:27.939Z,11.35
2023-03-30T00:18:54.375Z,11.75
2023-03-30T00:21:21.244Z,9.85
2023-03-30T00:23:48.232Z,17.75
2023-03-30T00:26:15.202Z,7.85
2023-03-30T00:28:42.188Z,11.68
2023-03-30T00:31:10.712Z,7.45
2023-03-30T00:33:45.454Z,8.13
2023-03-30T00:36:13.721Z,10.68
2023-03-30T00:38:40.592Z,8.75
2023-03-30T00:41:07.691Z,8.82
2023-03-30T00:43:34.752Z,10.25
2023-03-30T00:46:01.549Z,10.82
2023-03-30T00:48:34.465Z,16.10
2023-03-30T00:51:09.446Z,8.18
2023-03-30T00:53:38.656Z,13.98
2023-03-30T00:56:10.122Z,11.20
2023-03-30T00:58:38.693Z,10.30
2023-03-30T01:01:10.290Z,7.47
2023-03-30T01:03:43.352Z,12.90
2023-03-30T01:06:10.894Z,9.73
2023-03-30T01:08:38.407Z,10.18
2023-03-30T01:11:06.885Z,11.13
2023-03-30T01:13:39.858Z,11.63
2023-03-30T01:16:15.573Z,9.82
2023-03-30T01:18:55.554Z,11.82
2023-03-30T01:21:34.113Z,10.95
2023-03-30T01:24:27.576Z,12.40
2023-03-30T01:27:21.944Z,11.23
2023-03-30T01:30:04.257Z,14.82
2023-03-30T01:32:39.631Z,10.32
2023-03-30T01:35:28.258Z,10.88
2023-03-30T01:38:32.468Z,12.30
2023-03-30T01:41:11.521Z,12.07
2023-03-30T01:43:57.799Z,11.35
2023-03-30T01:46:31.523Z,12.02
2023-03-30T01:49:05.820Z,14.48
2023-03-30T01:51:48.824Z,12.02
2023-03-30T01:54:31.412Z,9.93
2023-03-30T01:57:06.673Z,15.77
2023-03-30T01:59:48.603Z,10.65
2023-03-30T02:02:17.495Z,8.40
2023-03-30T02:04:45.719Z,12.15
2023-03-30T02:07:20.201Z,8.75
2023-03-30T02:09:50.847Z,13.45
2023-03-30T02:12:19.420Z,11.63
2023-03-30T02:14:49.222Z,15.38
2023-03-30T02:17:20.081Z,11.15
2023-03-30T02:19:46.698Z,11.13
2023-03-30T02:22:15.508Z,11.20
2023-03-30T02:24:44.777Z,14.43
2023-03-30T02:27:11.642Z,16.65
2023-03-30T02:29:43.213Z,15.38
2023-03-30T02:32:23.134Z,16.33
2023-03-30T02:35:09.286Z,13.73
2023-03-30T02:37:38.493Z,11.02
2023-03-30T02:40:32.095Z,13.73
2023-03-30T02:43:17.047Z,15.63
2023-03-30T02:46:21.539Z,13.98
2023-03-30T02:49:03.270Z,10.40
2023-03-30T02:51:42.142Z,12.75
2023-03-30T02:54:21.198Z,14.20
2023-03-30T02:57:03.937Z,8.88
2023-03-30T02:59:39.047Z,15.20
2023-03-30T03:02:13.870Z,11.20
2023-03-30T03:04:43.563Z,13.25
2023-03-30T03:07:14.242Z,11.25
2023-03-30T03:09:41.144Z,13.68
2023-03-30T03:12:07.898Z,11.45
2023-03-30T03:14:34.283Z,10.07
2023-03-30T03:17:00.802Z,15.30
2023-03-30T03:19:27.226Z,10.18
2023-03-30T03:21:53.622Z,13.10
2023-03-30T03:24:20.054Z,13.65
2023-03-30T03:26:46.438Z,13.43
2023-03-30T03:29:12.986Z,11.50
2023-03-30T03:31:39.618Z,13.38
2023-03-30T03:34:06.765Z,13.52
2023-03-30T03:36:33.144Z,12.40
2023-03-30T03:38:59.553Z,11.80
2023-03-30T03:41:26.337Z,10.45
2023-03-30T03:43:52.813Z,15.60
2023-03-30T03:46:19.242Z,11.38
2023-03-30T03:48:46.181Z,13.15
2023-03-30T03:51:12.688Z,16.10
2023-03-30T03:53:39.090Z,14.38
2023-03-30T03:56:05.745Z,13.25
2023-03-30T03:58:32.132Z,14.80
2023-03-30T04:01:02.988Z,14.60
2023-03-30T04:06:00.747Z,11.52
2023-03-30T04:08:28.544Z,15.27
2023-03-30T04:10:55.052Z,24.05
2023-03-30T04:13:21.561Z,14.35
2023-03-30T04:15:47.947Z,17.80
2023-03-30T04:18:15.542Z,13.35
2023-03-30T04:20:42.051Z,13.27
2023-03-30T04:23:09.747Z,12.75
2023-03-30T04:25:36.266Z,18.67
2023-03-30T04:28:04.943Z,12.57
2023-03-30T04:30:31.519Z,12.93
2023-03-30T04:33:04.643Z,19.63
2023-03-30T04:35:34.581Z,19.00
2023-03-30T04:38:02.215Z,11.02
2023-03-30T04:40:29.378Z,18.13
2023-03-30T04:43:02.052Z,11.93
2023-03-30T04:45:29.701Z,10.68
2023-03-30T04:47:56.361Z,13.25
2023-03-30T04:50:22.835Z,18.33
2023-03-30T04:52:49.210Z,13.63
2023-03-30T04:55:15.621Z,13.35
2023-03-30T04:57:42.081Z,13.57
2023-03-30T05:00:09.328Z,15.52
2023-03-30T05:02:36.265Z,15.73
2023-03-30T05:05:02.869Z,13.82
2023-03-30T05:07:29.316Z,30.27
2023-03-30T05:09:55.739Z,12.88
2023-03-30T05:12:22.141Z,18.20
2023-03-30T05:14:48.580Z,17.48
2023-03-30T05:17:15.434Z,13.50
2023-03-30T05:19:42.020Z,10.60
2023-03-30T05:22:08.508Z,10.57
2023-03-30T05:24:34.966Z,14.75
2023-03-30T05:27:02.285Z,13.68
2023-03-30T05:29:28.719Z,14.13
2023-03-30T05:31:55.180Z,13.43
2023-03-30T05:34:21.576Z,11.93
2023-03-30T05:36:47.979Z,13.57
2023-03-30T05:39:14.517Z,14.48
2023-03-30T05:41:41.104Z,13.65
2023-03-30T05:44:07.747Z,13.80
2023-03-30T05:46:34.206Z,21.17
2023-03-30T05:49:01.089Z,17.90
2023-03-30T05:51:27.564Z,15.13
2023-03-30T05:53:53.929Z,18.67
2023-03-30T05:56:20.474Z,15.77
2023-03-30T05:58:47.019Z,20.88
2023-03-30T06:01:13.480Z,19.80
2023-03-30T06:03:40.304Z,18.90
2023-03-30T06:06:07.954Z,15.15
2023-03-30T06:08:34.425Z,16.70
2023-03-30T06:11:01.802Z,14.38
2023-03-30T06:13:28.625Z,14.55
2023-03-30T06:15:55.131Z,12.75
2023-03-30T06:18:21.586Z,17.75
2023-03-30T06:20:48.918Z,18.60
2023-03-30T06:23:16.415Z,21.25
2023-03-30T06:25:46.873Z,15.43
2023-03-30T06:28:13.268Z,14.37
2023-03-30T06:30:39.716Z,21.17
2023-03-30T06:33:06.226Z,22.65
2023-03-30T06:35:32.880Z,20.42
2023-03-30T06:37:59.339Z,20.00
2023-03-30T06:40:25.741Z,19.75
2023-03-30T06:42:52.154Z,20.35
2023-03-30T06:45:18.669Z,21.25
2023-03-30T06:47:46.180Z,33.25
2023-03-30T06:50:13.372Z,16.33
2023-03-30T06:52:39.873Z,15.88
2023-03-30T06:55:06.632Z,19.17
2023-03-30T06:57:33.130Z,14.13
2023-03-30T06:59:59.592Z,19.23
2023-03-30T07:02:26.509Z,23.23
2023-03-30T07:04:53.267Z,25.63
2023-03-30T07:07:20.913Z,22.95
2023-03-30T07:09:47.327Z,22.80
2023-03-30T07:12:13.765Z,25.33
2023-03-30T07:14:40.211Z,23.38
2023-03-30T07:17:07.884Z,26.60
2023-03-30T07:19:34.594Z,25.23
2023-03-30T07:22:01.284Z,25.80
2023-03-30T07:24:29.878Z,31.20
2023-03-30T07:26:56.444Z,32.88
2023-03-30T07:29:23.243Z,25.55
2023-03-30T07:31:49.656Z,17.55
2023-03-30T07:34:17.100Z,20.70
2023-03-30T07:36:43.517Z,27.33
2023-03-30T07:39:11.109Z,17.23
2023-03-30T07:41:37.617Z,19.38
2023-03-30T07:44:04.148Z,17.67
2023-03-30T07:46:31.125Z,23.90
2023-03-30T07:48:57.954Z,21.25
2023-03-30T07:51:25.918Z,15.93
2023-03-30T07:53:54.456Z,28.73
2023-03-30T07:56:21.066Z,15.07
2023-03-30T07:58:47.461Z,19.52
2023-03-30T08:01:13.986Z,21.77
2023-03-30T08:03:40.506Z,20.88
2023-03-30T08:06:07.409Z,17.33
2023-03-30T08:08:34.486Z,26.45
2023-03-30T08:11:01.269Z,25.00
2023-03-30T08:13:29.756Z,26.15
2023-03-30T08:15:56.328Z,18.77
2023-03-30T08:18:22.749Z,17.80
2023-03-30T08:20:53.748Z,18.38
2023-03-30T08:23:21.948Z,24.52
2023-03-30T08:25:52.447Z,30.67
2023-03-30T08:28:21.168Z,25.13
2023-03-30T08:30:48.032Z,21.98
2023-03-30T08:33:15.842Z,25.20
2023-03-30T08:35:49.418Z,23.60
2023-03-30T08:38:17.229Z,26.15
2023-03-30T08:40:48.439Z,22.02
2023-03-30T08:43:36.745Z,23.45
2023-03-30T08:46:04.022Z,21.08
2023-03-30T08:48:37.743Z,27.90
2023-03-30T08:51:24.709Z,21.60
2023-03-30T08:53:56.517Z,25.08
2023-03-30T08:56:27.613Z,20.58
2023-03-30T08:59:03.010Z,26.83
2023-03-30T09:01:53.884Z,20.77
2023-03-30T09:04:27.797Z,24.35
2023-03-30T09:07:12.193Z,28.13
2023-03-30T09:09:47.235Z,23.77
2023-03-30T09:12:34.313Z,21.90
2023-03-30T09:15:06.368Z,23.48
2023-03-30T09:17:32.780Z,26.08
2023-03-30T09:20:10.191Z,26.90
2023-03-30T09:22:42.423Z,21.00
2023-03-30T09:25:15.341Z,22.75
2023-03-30T09:27:55.548Z,22.15
2023-03-30T09:30:30.536Z,23.25
2023-03-30T09:33:00.884Z,22.35
2023-03-30T09:35:40.704Z,28.53
2023-03-30T09:38:12.937Z,20.20
2023-03-30T09:41:09.572Z,29.70
2023-03-30T09:43:44.216Z,23.40
2023-03-30T09:46:11.234Z,22.73
2023-03-30T09:48:48.668Z,22.17
2023-03-30T09:51:21.472Z,22.38
2023-03-30T09:53:51.288Z,24.30
2023-03-30T09:56:46.920Z,22.15
2023-03-30T09:59:35.132Z,24.98
2023-03-30T10:02:19.214Z,24.00
2023-03-30T10:05:04.340Z,23.73
2023-03-30T10:07:39.579Z,23.30
2023-03-30T10:10:16.887Z,21.27
2023-03-30T10:12:44.709Z,29.60
2023-03-30T10:15:16.887Z,25.50
2023-03-30T10:17:46.652Z,23.35
2023-03-30T10:20:15.816Z,22.02
2023-03-30T10:22:53.644Z,20.00
2023-03-30T10:25:27.300Z,22.42
2023-03-30T10:27:57.257Z,25.88
2023-03-30T10:30:27.118Z,22.77
2023-03-30T10:32:59.275Z,24.60
2023-03-30T10:35:31.787Z,22.08
2023-03-30T10:38:01.716Z,25.52
2023-03-30T10:40:41.036Z,22.58
2023-03-30T10:43:17.650Z,22.42
2023-03-30T10:45:47.853Z,21.38
2023-03-30T10:48:44.238Z,21.52
2023-03-30T10:51:52.570Z,22.88
2023-03-30T10:54:30.691Z,32.20
2023-03-30T10:57:11.572Z,20.25
2023-03-30T10:59:59.988Z,22.50
2023-03-30T11:02:41.739Z,22.02
2023-03-30T11:05:18.186Z,17.80
2023-03-30T11:07:54.840Z,20.85
2023-03-30T11:10:31.469Z,16.63
2023-03-30T11:13:05.807Z,15.52
2023-03-30T11:15:50.881Z,16.08
2023-03-30T11:18:21.854Z,14.43
2023-03-30T11:20:58.851Z,21.45
2023-03-30T11:23:50.724Z,12.05
2023-03-30T11:26:29.713Z,14.48
2023-03-30T11:28:59.034Z,16.70
2023-03-30T11:31:40.471Z,29.10
2023-03-30T11:34:36.433Z,16.20
2023-03-30T11:37:13.777Z,13.57
2023-03-30T11:39:48.988Z,11.50
2023-03-30T11:42:29.934Z,10.63
2023-03-30T11:44:56.808Z,15.40
2023-03-30T11:47:41.562Z,9.68
2023-03-30T11:50:23.799Z,16.90
2023-03-30T11:52:59.239Z,9.27
2023-03-30T11:55:51.004Z,14.43
2023-03-30T11:58:17.382Z,14.80
2023-03-30T12:00:54.655Z,14.32
2023-03-30T12:03:42.783Z,14.90
2023-03-30T12:06:11.080Z,13.57
2023-03-30T12:08:52.677Z,15.90
2023-03-30T12:11:52.397Z,12.70
2023-03-30T12:14:36.279Z,17.48
2023-03-30T12:17:12.186Z,14.43
2023-03-30T12:19:55.429Z,12.25
2023-03-30T12:22:36.054Z,14.23
2023-03-30T12:25:34.798Z,15.65
2023-03-30T12:28:07.244Z,10.55
2023-03-30T12:30:55.723Z,14.07
2023-03-30T12:33:36.878Z,31.42
2023-03-30T12:36:28.179Z,19.77
2023-03-30T12:41:26.650Z,13.93
2023-03-30T12:44:14.912Z,13.48
2023-03-30T12:46:52.687Z,11.98
2023-03-30T12:49:45.047Z,22.52
2023-03-30T12:52:25.035Z,15.07
2023-03-30T12:55:02.555Z,14.48
2023-03-30T12:57:43.000Z,18.85
2023-03-30T13:00:52.804Z,16.33
2023-03-30T13:03:29.413Z,14.07
2023-03-30T13:05:59.865Z,16.23
2023-03-30T13:08:36.933Z,12.30
2023-03-30T13:11:12.924Z,13.27
2023-03-30T13:13:56.228Z,18.50
2023-03-30T13:16:50.248Z,15.02
2023-03-30T13:19:38.069Z,12.93
2023-03-30T13:22:10.632Z,11.85
2023-03-30T13:24:44.368Z,12.95
2023-03-30T13:27:13.686Z,17.00
2023-03-30T13:29:52.536Z,19.13
2023-03-30T13:32:22.019Z,16.25
2023-03-30T13:35:07.448Z,15.00
2023-03-30T13:37:52.336Z,16.73
2023-03-30T13:40:43.735Z,15.38
2023-03-30T13:43:58.135Z,21.10
2023-03-30T13:46:40.920Z,22.15
2023-03-30T13:49:39.988Z,18.25
2023-03-30T13:52:14.147Z,18.55
2023-03-30T13:54:41.647Z,16.00
2023-03-30T13:57:09.547Z,15.20
2023-03-30T13:59:41.554Z,16.15
2023-03-30T14:02:14.623Z,16.80
2023-03-30T14:04:41.055Z,13.13
2023-03-30T14:07:25.625Z,15.40
2023-03-30T14:10:06.296Z,14.05
2023-03-30T14:12:34.449Z,14.52
2023-03-30T14:15:02.096Z,14.32
2023-03-30T14:17:28.796Z,12.30
2023-03-30T14:20:16.702Z,14.48
2023-03-30T14:22:47.337Z,13.63
2023-03-30T14:25:23.148Z,16.50
2023-03-30T14:27:49.949Z,18.45
2023-03-30T14:30:22.558Z,14.57
2023-03-30T14:33:09.062Z,13.32
2023-03-30T14:35:42.191Z,13.98
2023-03-30T14:38:17.388Z,17.20
2023-03-30T14:40:45.909Z,15.38
2023-03-30T14:43:40.680Z,16.13
2023-03-30T14:46:11.748Z,14.65
2023-03-30T14:48:42.522Z,14.07
2023-03-30T14:51:37.740Z,17.65
2023-03-30T14:54:05.901Z,14.30
2023-03-30T14:56:32.890Z,9.93
2023-03-30T14:59:00.262Z,14.60
2023-03-30T15:01:31.643Z,19.40
2023-03-30T15:04:14.756Z,12.63
2023-03-30T15:06:42.098Z,11.00
2023-03-30T15:09:16.362Z,12.88
2023-03-30T15:11:48.005Z,15.63
2023-03-30T15:14:19.962Z,11.02
2023-03-30T15:16:53.337Z,11.25
2023-03-30T15:19:31.404Z,11.82
2023-03-30T15:22:03.020Z,18.23
2023-03-30T15:24:34.286Z,10.80
2023-03-30T15:27:03.912Z,13.25
2023-03-30T15:29:31.941Z,13.05
2023-03-30T15:32:05.402Z,12.82
2023-03-30T15:34:32.012Z,10.63
2023-03-30T15:36:58.947Z,14.35
2023-03-30T15:39:33.867Z,11.27
2023-03-30T15:42:06.033Z,11.93
2023-03-30T15:44:38.360Z,15.52
2023-03-30T15:47:12.303Z,12.73
2023-03-30T15:49:45.973Z,9.75
2023-03-30T15:52:18.854Z,10.10
2023-03-30T15:54:52.776Z,8.27
2023-03-30T15:57:29.678Z,9.90
2023-03-30T16:00:01.941Z,8.00
2023-03-30T16:02:31.729Z,4.03
2023-03-30T16:05:00.673Z,10.20
2023-03-30T16:07:28.437Z,3.45
2023-03-30T16:09:54.998Z,4.78
2023-03-30T16:12:27.566Z,6.13
2023-03-30T16:14:54.243Z,3.33
2023-03-30T16:17:21.171Z,9.77
2023-03-30T16:19:47.766Z,14.18
2023-03-30T16:22:15.893Z,16.30
2023-03-30T16:24:53.981Z,14.40
2023-03-30T16:27:20.628Z,12.82
2023-03-30T16:29:50.680Z,14.27
2023-03-30T16:32:21.225Z,13.60
2023-03-30T16:34:48.361Z,16.88
2023-03-30T16:37:15.202Z,14.07
2023-03-30T16:39:42.593Z,16.33
2023-03-30T16:42:09.012Z,19.98
2023-03-30T16:44:36.358Z,8.18
2023-03-30T16:47:02.914Z,6.60
2023-03-30T16:49:29.352Z,10.23
2023-03-30T16:51:58.217Z,5.47
2023-03-30T16:54:32.036Z,8.63
2023-03-30T16:56:59.466Z,6.28
2023-03-30T16:59:29.115Z,11.20
2023-03-30T17:01:56.067Z,8.57
2023-03-30T17:04:22.639Z,10.93
2023-03-30T17:06:49.472Z,9.07
2023-03-30T17:09:18.557Z,6.47
2023-03-30T17:11:46.752Z,5.95
2023-03-30T17:14:13.944Z,4.22
2023-03-30T17:16:41.392Z,7.18
2023-03-30T17:19:13.577Z,8.48
2023-03-30T17:21:48.814Z,4.53
2023-03-30T17:24:25.101Z,8.48
2023-03-30T17:26:54.164Z,6.35
2023-03-30T17:29:25.466Z,6.75
2023-03-30T17:31:55.768Z,7.50
2023-03-30T17:34:36.461Z,6.37
2023-03-30T17:37:04.007Z,7.38
2023-03-30T17:39:30.978Z,10.63
2023-03-30T17:42:03.665Z,8.20
2023-03-30T17:44:52.876Z,5.90
2023-03-30T17:47:28.905Z,9.73
2023-03-30T17:49:55.402Z,7.53
2023-03-30T17:52:21.966Z,6.07
2023-03-30T17:54:48.362Z,11.82
2023-03-30T17:57:14.884Z,6.68
2023-03-30T17:59:41.341Z,10.00
2023-03-30T18:02:07.975Z,7.07
2023-03-30T18:04:35.188Z,6.32
2023-03-30T18:07:02.941Z,10.13
2023-03-30T18:09:29.386Z,10.77
2023-03-30T18:11:55.821Z,8.85
2023-03-30T18:14:22.284Z,8.45
2023-03-30T18:16:50.344Z,9.75
2023-03-30T18:19:16.878Z,10.45
2023-03-30T18:21:43.336Z,6.22
2023-03-30T18:24:09.741Z,9.65
2023-03-30T18:26:36.348Z,11.20
2023-03-30T18:29:03.230Z,9.43
2023-03-30T18:31:29.661Z,7.60
2023-03-30T18:33:56.102Z,5.07
2023-03-30T18:36:22.696Z,9.20
2023-03-30T18:38:50.211Z,12.43
2023-03-30T18:41:16.697Z,8.75
2023-03-30T18:43:43.158Z,8.18
2023-03-30T18:46:12.410Z,9.02
2023-03-30T18:48:39.011Z,8.20
2023-03-30T18:51:05.660Z,5.53
2023-03-30T18:53:32.073Z,7.57
2023-03-30T18:56:01.879Z,5.90
2023-03-30T18:58:33.405Z,4.82
2023-03-30T19:01:00.342Z,5.75
2023-03-30T19:03:28.252Z,4.57
2023-03-30T19:05:54.735Z,4.15
2023-03-30T19:08:23.675Z,5.07
2023-03-30T19:10:52.261Z,6.20
2023-03-30T19:13:20.367Z,7.47
2023-03-30T19:15:48.302Z,6.70
2023-03-30T19:18:15.666Z,4.80
2023-03-30T19:20:42.166Z,6.63
2023-03-30T19:23:12.406Z,6.97
2023-03-30T19:25:39.797Z,4.88
2023-03-30T19:28:07.035Z,7.80
2023-03-30T19:30:37.475Z,6.10
2023-03-30T19:33:12.149Z,10.25
2023-03-30T19:35:43.392Z,7.13
2023-03-30T19:38:09.847Z,8.52
2023-03-30T19:40:38.073Z,8.00
2023-03-30T19:43:04.602Z,9.50
2023-03-30T19:45:31.723Z,10.95
2023-03-30T19:47:58.282Z,9.02
2023-03-30T19:50:25.004Z,9.13
2023-03-30T19:52:51.727Z,6.70
2023-03-30T19:55:19.293Z,5.43
2023-03-30T19:57:46.200Z,8.73
2023-03-30T20:00:15.880Z,5.75
2023-03-30T20:02:48.231Z,6.53
2023-03-30T20:05:15.852Z,5.00
2023-03-30T20:07:44.219Z,11.68
2023-03-30T20:10:13.408Z,5.82
2023-03-30T20:12:39.825Z,5.82
2023-03-30T20:15:08.138Z,10.63
2023-03-30T20:17:36.412Z,8.77
2023-03-30T20:20:08.707Z,10.18
2023-03-30T20:22:41.224Z,12.90
2023-03-30T20:25:10.378Z,8.90
2023-03-30T20:27:37.116Z,9.32
2023-03-30T20:30:05.932Z,12.30
2023-03-30T20:32:34.072Z,7.18
2023-03-30T20:35:00.621Z,7.80
2023-03-30T20:37:27.025Z,9.20
2023-03-30T20:39:53.425Z,5.30
2023-03-30T20:42:26.239Z,7.30
2023-03-30T20:44:53.446Z,8.57
2023-03-30T20:47:23.207Z,6.05
2023-03-30T20:49:49.750Z,10.50
2023-03-30T20:52:16.795Z,6.43
2023-03-30T20:54:44.414Z,6.88
2023-03-30T20:57:11.505Z,7.03
2023-03-30T20:59:39.324Z,3.72
2023-03-30T21:02:05.814Z,8.38
2023-03-30T21:04:36.430Z,8.13
2023-03-30T21:07:03.060Z,8.10
2023-03-30T21:09:29.638Z,13.45
2023-03-30T21:11:56.191Z,7.35
2023-03-30T21:14:24.058Z,9.00
2023-03-30T21:16:50.773Z,7.47
2023-03-30T21:19:17.243Z,10.65
2023-03-30T21:21:43.719Z,9.88
2023-03-30T21:24:11.201Z,7.70
2023-03-30T21:26:38.030Z,8.13
2023-03-30T21:29:05.016Z,11.70
2023-03-30T21:31:31.858Z,9.70
2023-03-30T21:33:58.517Z,7.55
2023-03-30T21:36:25.142Z,7.05
2023-03-30T21:38:51.671Z,6.10
2023-03-30T21:41:21.033Z,6.68
2023-03-30T21:43:48.130Z,7.78
2023-03-30T21:46:17.607Z,9.63
2023-03-30T21:48:45.854Z,8.02
2023-03-30T21:51:16.714Z,8.88
2023-03-30T21:53:48.151Z,10.35
2023-03-30T21:56:15.314Z,12.30
2023-03-30T21:58:41.893Z,9.75
2023-03-30T22:01:12.410Z,5.82
2023-03-30T22:03:41.217Z,7.05
2023-03-30T22:06:10.726Z,7.25
2023-03-30T22:08:37.217Z,8.82
2023-03-30T22:11:15.325Z,14.07
2023-03-30T22:13:41.829Z,7.85
2023-03-30T22:16:24.608Z,11.95
2023-03-30T22:18:51.782Z,7.97
2023-03-30T22:21:24.771Z,6.30
2023-03-30T22:23:53.017Z,9.32
2023-03-30T22:26:19.627Z,7.38
2023-03-30T22:28:46.674Z,6.05
2023-03-30T22:31:15.191Z,7.18
2023-03-30T22:33:42.205Z,7.05
2023-03-30T22:36:23.789Z,7.10
2023-03-30T22:38:51.701Z,7.90
2023-03-30T22:41:23.614Z,6.38
2023-03-30T22:43:51.883Z,7.63
2023-03-30T22:46:18.332Z,10.52
2023-03-30T22:48:45.208Z,10.27
2023-03-30T22:51:14.548Z,8.07
2023-03-30T22:53:41.175Z,12.90
2023-03-30T22:56:08.096Z,15.82
2023-03-30T22:58:35.945Z,6.70
2023-03-30T23:01:05.991Z,6.82
2023-03-30T23:03:33.046Z,11.45
2023-03-30T23:06:01.526Z,7.70
2023-03-30T23:08:31.423Z,8.38
2023-03-30T23:11:04.029Z,8.55
2023-03-30T23:13:31.595Z,11.18
2023-03-30T23:15:58.504Z,12.63
2023-03-30T23:18:25.222Z,6.25
2023-03-30T23:20:53.829Z,10.73
2023-03-30T23:23:20.902Z,8.57
2023-03-30T23:25:51.437Z,12.27
2023-03-30T23:28:18.388Z,9.68
2023-03-30T23:30:44.946Z,8.93
2023-03-30T23:33:12.065Z,11.93
2023-03-30T23:35:38.552Z,14.98
2023-03-30T23:38:04.977Z,8.98
2023-03-30T23:40:31.817Z,6.75
2023-03-30T23:42:58.222Z,6.88
2023-03-30T23:45:24.688Z,7.75
2023-03-30T23:47:51.394Z,8.05
2023-03-30T23:50:17.775Z,8.15
2023-03-30T23:52:44.182Z,6.00
2023-03-30T23:55:11.113Z,8.60
2023-03-30T23:57:37.524Z,7.18
